sensor_id;sensor_type;location;lat;lon;timestamp;temperature;humidity
12726;DHT22;6427;49.754;6.106;2022-11-13T00:01:20;6.80;99.90
12726;DHT22;6427;49.754;6.106;2022-11-13T00:03:47;6.70;99.90
12726;DHT22;6427;49.754;6.106;2022-11-13T00:06:15;6.70;99.90
12726;DHT22;6427;49.754;6.106;2022-11-13T00:08:42;6.60;99.90
12726;DHT22;6427;49.754;6.106;2022-11-13T00:11:13;6.60;99.90
12726;DHT22;6427;49.754;6.106;2022-11-13T00:13:40;6.50;99.90
12726;DHT22;6427;49.754;6.106;2022-11-13T00:16:12;6.70;99.90
12726;DHT22;6427;49.754;6.106;2022-11-13T00:18:36;6.70;99.90
12726;DHT22;6427;49.754;6.106;2022-11-13T00:21:10;6.60;99.90
12726;DHT22;6427;49.754;6.106;2022-11-13T00:23:34;6.60;99.90
12726;DHT22;6427;49.754;6.106;2022-11-13T00:26:09;6.60;99.90
12726;DHT22;6427;49.754;6.106;2022-11-13T00:28:35;6.70;99.90
12726;DHT22;6427;49.754;6.106;2022-11-13T00:31:03;6.70;99.90
12726;DHT22;6427;49.754;6.106;2022-11-13T00:33:30;6.70;99.90
12726;DHT22;6427;49.754;6.106;2022-11-13T00:36:04;6.80;99.90
12726;DHT22;6427;49.754;6.106;2022-11-13T00:38:28;6.80;99.90
12726;DHT22;6427;49.754;6.106;2022-11-13T00:40:56;6.70;99.90
12726;DHT22;6427;49.754;6.106;2022-11-13T00:43:23;6.70;99.90
12726;DHT22;6427;49.754;6.106;2022-11-13T00:45:51;6.60;99.90
12726;DHT22;6427;49.754;6.106;2022-11-13T00:48:19;6.70;99.90
12726;DHT22;6427;49.754;6.106;2022-11-13T00:50:47;6.60;99.90
12726;DHT22;6427;49.754;6.106;2022-11-13T00:53:15;6.60;99.90
12726;DHT22;6427;49.754;6.106;2022-11-13T00:55:43;6.50;99.90
12726;DHT22;6427;49.754;6.106;2022-11-13T00:58:10;6.40;99.90
12726;DHT22;6427;49.754;6.106;2022-11-13T01:00:38;6.30;99.90
12726;DHT22;6427;49.754;6.106;2022-11-13T01:03:05;6.30;99.90
12726;DHT22;6427;49.754;6.106;2022-11-13T01:05:36;6.20;99.90
12726;DHT22;6427;49.754;6.106;2022-11-13T01:08:04;6.10;99.90
12726;DHT22;6427;49.754;6.106;2022-11-13T01:10:32;6.10;99.90
12726;DHT22;6427;49.754;6.106;2022-11-13T01:12:59;6.10;99.90
12726;DHT22;6427;49.754;6.106;2022-11-13T01:15:26;6.20;99.90
12726;DHT22;6427;49.754;6.106;2022-11-13T01:17:54;6.20;99.90
12726;DHT22;6427;49.754;6.106;2022-11-13T01:20:22;6.10;99.90
12726;DHT22;6427;49.754;6.106;2022-11-13T01:22:50;6.30;99.90
12726;DHT22;6427;49.754;6.106;2022-11-13T01:25:18;6.30;99.90
12726;DHT22;6427;49.754;6.106;2022-11-13T01:27:46;6.20;99.90
12726;DHT22;6427;49.754;6.106;2022-11-13T01:30:13;6.20;99.90
12726;DHT22;6427;49.754;6.106;2022-11-13T01:32:41;6.10;99.90
12726;DHT22;6427;49.754;6.106;2022-11-13T01:35:08;6.10;99.90
12726;DHT22;6427;49.754;6.106;2022-11-13T01:37:36;6.00;99.90
12726;DHT22;6427;49.754;6.106;2022-11-13T01:40:04;6.20;99.90
12726;DHT22;6427;49.754;6.106;2022-11-13T01:42:32;6.10;99.90
12726;DHT22;6427;49.754;6.106;2022-11-13T01:44:59;6.10;99.90
12726;DHT22;6427;49.754;6.106;2022-11-13T01:47:26;6.00;99.90
12726;DHT22;6427;49.754;6.106;2022-11-13T01:49:55;6.00;99.90
12726;DHT22;6427;49.754;6.106;2022-11-13T01:52:56;5.90;99.90
12726;DHT22;6427;49.754;6.106;2022-11-13T01:54:57;5.80;99.90
12726;DHT22;6427;49.754;6.106;2022-11-13T01:57:24;5.80;99.90
12726;DHT22;6427;49.754;6.106;2022-11-13T01:59:54;5.70;99.90
12726;DHT22;6427;49.754;6.106;2022-11-13T02:02:19;5.70;99.90
12726;DHT22;6427;49.754;6.106;2022-11-13T02:04:47;5.60;99.90
12726;DHT22;6427;49.754;6.106;2022-11-13T02:07:16;5.50;99.90
12726;DHT22;6427;49.754;6.106;2022-11-13T02:09:53;5.50;99.90
12726;DHT22;6427;49.754;6.106;2022-11-13T02:12:11;5.70;99.90
12726;DHT22;6427;49.754;6.106;2022-11-13T02:14:42;5.70;99.90
12726;DHT22;6427;49.754;6.106;2022-11-13T02:17:09;5.70;99.90
12726;DHT22;6427;49.754;6.106;2022-11-13T02:19:37;5.60;99.90
12726;DHT22;6427;49.754;6.106;2022-11-13T02:22:15;5.50;99.90
12726;DHT22;6427;49.754;6.106;2022-11-13T02:24:42;5.50;99.90
12726;DHT22;6427;49.754;6.106;2022-11-13T02:29:45;5.50;99.90
12726;DHT22;6427;49.754;6.106;2022-11-13T02:32:12;5.40;99.90
12726;DHT22;6427;49.754;6.106;2022-11-13T02:34:41;5.60;99.90
12726;DHT22;6427;49.754;6.106;2022-11-13T02:37:08;5.60;99.90
12726;DHT22;6427;49.754;6.106;2022-11-13T02:39:36;5.60;99.90
12726;DHT22;6427;49.754;6.106;2022-11-13T02:42:04;5.50;99.90
12726;DHT22;6427;49.754;6.106;2022-11-13T02:44:32;5.30;99.90
12726;DHT22;6427;49.754;6.106;2022-11-13T02:46:59;5.30;99.90
12726;DHT22;6427;49.754;6.106;2022-11-13T02:49:28;5.20;99.90
12726;DHT22;6427;49.754;6.106;2022-11-13T02:51:55;5.20;99.90
12726;DHT22;6427;49.754;6.106;2022-11-13T02:54:23;5.10;99.90
12726;DHT22;6427;49.754;6.106;2022-11-13T02:56:50;5.10;99.90
12726;DHT22;6427;49.754;6.106;2022-11-13T02:59:19;5.10;99.90
12726;DHT22;6427;49.754;6.106;2022-11-13T03:01:47;5.10;99.90
12726;DHT22;6427;49.754;6.106;2022-11-13T03:04:14;5.00;99.90
12726;DHT22;6427;49.754;6.106;2022-11-13T03:06:42;5.00;99.90
12726;DHT22;6427;49.754;6.106;2022-11-13T03:09:10;5.00;99.90
12726;DHT22;6427;49.754;6.106;2022-11-13T03:11:38;4.90;99.90
12726;DHT22;6427;49.754;6.106;2022-11-13T03:14:05;4.90;99.90
12726;DHT22;6427;49.754;6.106;2022-11-13T03:16:33;4.90;99.90
12726;DHT22;6427;49.754;6.106;2022-11-13T03:19:00;5.10;99.90
12726;DHT22;6427;49.754;6.106;2022-11-13T03:21:29;5.10;99.90
12726;DHT22;6427;49.754;6.106;2022-11-13T03:23:56;5.00;99.90
12726;DHT22;6427;49.754;6.106;2022-11-13T03:26:23;4.90;99.90
12726;DHT22;6427;49.754;6.106;2022-11-13T03:28:51;4.80;99.90
12726;DHT22;6427;49.754;6.106;2022-11-13T03:31:20;4.80;99.90
12726;DHT22;6427;49.754;6.106;2022-11-13T03:33:47;4.70;99.90
12726;DHT22;6427;49.754;6.106;2022-11-13T03:36:15;4.70;99.90
12726;DHT22;6427;49.754;6.106;2022-11-13T03:38:42;4.70;99.90
12726;DHT22;6427;49.754;6.106;2022-11-13T03:41:10;4.60;99.90
12726;DHT22;6427;49.754;6.106;2022-11-13T03:43:37;4.60;99.90
12726;DHT22;6427;49.754;6.106;2022-11-13T03:46:05;4.80;99.90
12726;DHT22;6427;49.754;6.106;2022-11-13T03:48:32;4.70;99.90
12726;DHT22;6427;49.754;6.106;2022-11-13T03:51:00;4.70;99.90
12726;DHT22;6427;49.754;6.106;2022-11-13T03:53:28;4.80;99.90
12726;DHT22;6427;49.754;6.106;2022-11-13T03:55:56;4.80;99.90
12726;DHT22;6427;49.754;6.106;2022-11-13T03:58:25;4.70;99.90
12726;DHT22;6427;49.754;6.106;2022-11-13T04:00:53;4.70;99.90
12726;DHT22;6427;49.754;6.106;2022-11-13T04:03:21;4.60;99.90
12726;DHT22;6427;49.754;6.106;2022-11-13T04:05:48;4.60;99.90
12726;DHT22;6427;49.754;6.106;2022-11-13T04:08:16;4.50;99.90
12726;DHT22;6427;49.754;6.106;2022-11-13T04:10:44;4.50;99.90
12726;DHT22;6427;49.754;6.106;2022-11-13T04:13:11;4.70;99.90
12726;DHT22;6427;49.754;6.106;2022-11-13T04:15:38;4.90;99.90
12726;DHT22;6427;49.754;6.106;2022-11-13T04:18:06;5.20;99.90
12726;DHT22;6427;49.754;6.106;2022-11-13T04:20:33;5.10;99.90
12726;DHT22;6427;49.754;6.106;2022-11-13T04:23:02;4.90;99.90
12726;DHT22;6427;49.754;6.106;2022-11-13T04:25:29;4.80;99.90
12726;DHT22;6427;49.754;6.106;2022-11-13T04:27:57;4.70;99.90
12726;DHT22;6427;49.754;6.106;2022-11-13T04:30:24;4.60;99.90
12726;DHT22;6427;49.754;6.106;2022-11-13T04:32:53;4.40;99.90
12726;DHT22;6427;49.754;6.106;2022-11-13T04:35:21;4.40;99.90
12726;DHT22;6427;49.754;6.106;2022-11-13T04:37:48;4.40;99.90
12726;DHT22;6427;49.754;6.106;2022-11-13T04:40:16;4.30;99.90
12726;DHT22;6427;49.754;6.106;2022-11-13T04:42:44;4.30;99.90
12726;DHT22;6427;49.754;6.106;2022-11-13T04:45:18;4.30;99.90
12726;DHT22;6427;49.754;6.106;2022-11-13T04:47:44;4.20;99.90
12726;DHT22;6427;49.754;6.106;2022-11-13T04:50:13;4.20;99.90
12726;DHT22;6427;49.754;6.106;2022-11-13T04:52:40;4.10;99.90
12726;DHT22;6427;49.754;6.106;2022-11-13T04:55:07;4.10;99.90
12726;DHT22;6427;49.754;6.106;2022-11-13T04:57:36;4.10;99.90
12726;DHT22;6427;49.754;6.106;2022-11-13T05:00:05;4.10;99.90
12726;DHT22;6427;49.754;6.106;2022-11-13T05:02:32;4.10;99.90
12726;DHT22;6427;49.754;6.106;2022-11-13T05:05:00;4.30;99.90
12726;DHT22;6427;49.754;6.106;2022-11-13T05:07:27;4.30;99.90
12726;DHT22;6427;49.754;6.106;2022-11-13T05:09:56;4.40;99.90
12726;DHT22;6427;49.754;6.106;2022-11-13T05:12:24;4.40;99.90
12726;DHT22;6427;49.754;6.106;2022-11-13T05:14:51;4.40;99.90
12726;DHT22;6427;49.754;6.106;2022-11-13T05:17:19;4.40;99.90
12726;DHT22;6427;49.754;6.106;2022-11-13T05:19:46;4.40;99.90
12726;DHT22;6427;49.754;6.106;2022-11-13T05:22:14;4.60;99.90
12726;DHT22;6427;49.754;6.106;2022-11-13T05:24:41;4.60;99.90
12726;DHT22;6427;49.754;6.106;2022-11-13T05:27:10;4.50;99.90
12726;DHT22;6427;49.754;6.106;2022-11-13T05:29:37;4.50;99.90
12726;DHT22;6427;49.754;6.106;2022-11-13T05:32:05;4.40;99.90
12726;DHT22;6427;49.754;6.106;2022-11-13T05:34:32;4.60;99.90
12726;DHT22;6427;49.754;6.106;2022-11-13T05:37:00;4.60;99.90
12726;DHT22;6427;49.754;6.106;2022-11-13T05:39:27;4.60;99.90
12726;DHT22;6427;49.754;6.106;2022-11-13T05:41:55;4.60;99.90
12726;DHT22;6427;49.754;6.106;2022-11-13T05:44:23;4.50;99.90
12726;DHT22;6427;49.754;6.106;2022-11-13T05:46:50;4.50;99.90
12726;DHT22;6427;49.754;6.106;2022-11-13T05:49:18;4.40;99.90
12726;DHT22;6427;49.754;6.106;2022-11-13T05:51:46;4.40;99.90
12726;DHT22;6427;49.754;6.106;2022-11-13T05:54:14;4.40;99.90
12726;DHT22;6427;49.754;6.106;2022-11-13T05:56:41;4.40;99.90
12726;DHT22;6427;49.754;6.106;2022-11-13T05:59:10;4.20;99.90
12726;DHT22;6427;49.754;6.106;2022-11-13T06:01:38;4.20;99.90
12726;DHT22;6427;49.754;6.106;2022-11-13T06:04:06;4.20;99.90
12726;DHT22;6427;49.754;6.106;2022-11-13T06:06:33;4.20;99.90
12726;DHT22;6427;49.754;6.106;2022-11-13T06:09:03;4.20;99.90
12726;DHT22;6427;49.754;6.106;2022-11-13T06:11:29;4.20;99.90
12726;DHT22;6427;49.754;6.106;2022-11-13T06:13:59;4.20;99.90
12726;DHT22;6427;49.754;6.106;2022-11-13T06:16:28;4.40;99.90
12726;DHT22;6427;49.754;6.106;2022-11-13T06:18:56;4.40;99.90
12726;DHT22;6427;49.754;6.106;2022-11-13T06:21:25;4.30;99.90
12726;DHT22;6427;49.754;6.106;2022-11-13T06:23:51;4.20;99.90
12726;DHT22;6427;49.754;6.106;2022-11-13T06:26:22;4.20;99.90
12726;DHT22;6427;49.754;6.106;2022-11-13T06:28:49;4.20;99.90
12726;DHT22;6427;49.754;6.106;2022-11-13T06:31:23;4.20;99.90
12726;DHT22;6427;49.754;6.106;2022-11-13T06:33:47;4.20;99.90
12726;DHT22;6427;49.754;6.106;2022-11-13T06:36:20;4.10;99.90
12726;DHT22;6427;49.754;6.106;2022-11-13T06:38:43;4.10;99.90
12726;DHT22;6427;49.754;6.106;2022-11-13T06:41:11;4.10;99.90
12726;DHT22;6427;49.754;6.106;2022-11-13T06:43:38;4.00;99.90
12726;DHT22;6427;49.754;6.106;2022-11-13T06:46:06;4.00;99.90
12726;DHT22;6427;49.754;6.106;2022-11-13T06:48:33;4.00;99.90
12726;DHT22;6427;49.754;6.106;2022-11-13T06:51:02;3.90;99.90
12726;DHT22;6427;49.754;6.106;2022-11-13T06:53:29;3.90;99.90
12726;DHT22;6427;49.754;6.106;2022-11-13T06:55:56;3.90;99.90
12726;DHT22;6427;49.754;6.106;2022-11-13T06:58:24;3.80;99.90
12726;DHT22;6427;49.754;6.106;2022-11-13T07:00:52;3.80;99.90
12726;DHT22;6427;49.754;6.106;2022-11-13T07:03:21;3.80;99.90
12726;DHT22;6427;49.754;6.106;2022-11-13T07:05:47;3.80;99.90
12726;DHT22;6427;49.754;6.106;2022-11-13T07:08:15;3.80;99.90
12726;DHT22;6427;49.754;6.106;2022-11-13T07:10:51;3.80;99.90
12726;DHT22;6427;49.754;6.106;2022-11-13T07:13:11;3.80;99.90
12726;DHT22;6427;49.754;6.106;2022-11-13T07:15:38;3.80;99.90
12726;DHT22;6427;49.754;6.106;2022-11-13T07:18:07;3.70;99.90
12726;DHT22;6427;49.754;6.106;2022-11-13T07:20:34;3.70;99.90
12726;DHT22;6427;49.754;6.106;2022-11-13T07:23:03;3.70;99.90
12726;DHT22;6427;49.754;6.106;2022-11-13T07:25:30;3.70;99.90
12726;DHT22;6427;49.754;6.106;2022-11-13T07:27:57;3.70;99.90
12726;DHT22;6427;49.754;6.106;2022-11-13T07:30:25;3.70;99.90
12726;DHT22;6427;49.754;6.106;2022-11-13T07:32:52;3.70;99.90
12726;DHT22;6427;49.754;6.106;2022-11-13T07:35:20;3.60;99.90
12726;DHT22;6427;49.754;6.106;2022-11-13T07:37:47;3.60;99.90
12726;DHT22;6427;49.754;6.106;2022-11-13T07:40:15;3.60;99.90
12726;DHT22;6427;49.754;6.106;2022-11-13T07:42:43;3.70;99.90
12726;DHT22;6427;49.754;6.106;2022-11-13T07:45:10;3.70;99.90
12726;DHT22;6427;49.754;6.106;2022-11-13T07:47:38;3.70;99.90
12726;DHT22;6427;49.754;6.106;2022-11-13T07:50:05;3.70;99.90
12726;DHT22;6427;49.754;6.106;2022-11-13T07:52:33;3.70;99.90
12726;DHT22;6427;49.754;6.106;2022-11-13T07:55:01;3.90;99.90
12726;DHT22;6427;49.754;6.106;2022-11-13T07:57:29;3.90;99.90
12726;DHT22;6427;49.754;6.106;2022-11-13T07:59:56;3.90;99.90
12726;DHT22;6427;49.754;6.106;2022-11-13T08:02:24;3.90;99.90
12726;DHT22;6427;49.754;6.106;2022-11-13T08:04:52;3.80;99.90
12726;DHT22;6427;49.754;6.106;2022-11-13T08:07:20;3.80;99.90
12726;DHT22;6427;49.754;6.106;2022-11-13T08:09:48;3.80;99.90
12726;DHT22;6427;49.754;6.106;2022-11-13T08:12:16;3.80;99.90
12726;DHT22;6427;49.754;6.106;2022-11-13T08:14:43;3.80;99.90
12726;DHT22;6427;49.754;6.106;2022-11-13T08:17:11;3.80;99.90
12726;DHT22;6427;49.754;6.106;2022-11-13T08:19:39;3.80;99.90
12726;DHT22;6427;49.754;6.106;2022-11-13T08:22:07;3.90;99.90
12726;DHT22;6427;49.754;6.106;2022-11-13T08:24:34;3.90;99.90
12726;DHT22;6427;49.754;6.106;2022-11-13T08:27:02;3.90;99.90
12726;DHT22;6427;49.754;6.106;2022-11-13T08:29:29;4.10;99.90
12726;DHT22;6427;49.754;6.106;2022-11-13T08:31:57;4.20;99.90
12726;DHT22;6427;49.754;6.106;2022-11-13T08:34:25;4.20;99.90
12726;DHT22;6427;49.754;6.106;2022-11-13T08:36:53;4.20;99.90
12726;DHT22;6427;49.754;6.106;2022-11-13T08:39:20;4.20;99.90
12726;DHT22;6427;49.754;6.106;2022-11-13T08:41:48;4.20;99.90
12726;DHT22;6427;49.754;6.106;2022-11-13T08:44:16;4.10;99.90
12726;DHT22;6427;49.754;6.106;2022-11-13T08:46:43;4.10;99.90
12726;DHT22;6427;49.754;6.106;2022-11-13T08:49:11;4.10;99.90
12726;DHT22;6427;49.754;6.106;2022-11-13T08:51:39;4.10;99.90
12726;DHT22;6427;49.754;6.106;2022-11-13T08:54:07;4.20;99.90
12726;DHT22;6427;49.754;6.106;2022-11-13T08:56:34;4.20;99.90
12726;DHT22;6427;49.754;6.106;2022-11-13T08:59:03;4.20;99.90
12726;DHT22;6427;49.754;6.106;2022-11-13T09:01:31;4.20;99.90
12726;DHT22;6427;49.754;6.106;2022-11-13T09:03:58;4.20;99.90
12726;DHT22;6427;49.754;6.106;2022-11-13T09:06:26;4.20;99.90
12726;DHT22;6427;49.754;6.106;2022-11-13T09:08:54;4.30;99.90
12726;DHT22;6427;49.754;6.106;2022-11-13T09:11:21;4.40;99.90
12726;DHT22;6427;49.754;6.106;2022-11-13T09:13:49;4.40;99.90
12726;DHT22;6427;49.754;6.106;2022-11-13T09:16:17;4.80;99.90
12726;DHT22;6427;49.754;6.106;2022-11-13T09:18:49;4.80;99.90
12726;DHT22;6427;49.754;6.106;2022-11-13T09:21:16;4.80;99.90
12726;DHT22;6427;49.754;6.106;2022-11-13T09:23:43;4.80;99.90
12726;DHT22;6427;49.754;6.106;2022-11-13T09:26:11;4.80;99.90
12726;DHT22;6427;49.754;6.106;2022-11-13T09:28:38;4.80;99.90
12726;DHT22;6427;49.754;6.106;2022-11-13T09:31:06;4.90;99.90
12726;DHT22;6427;49.754;6.106;2022-11-13T09:33:34;5.20;99.90
12726;DHT22;6427;49.754;6.106;2022-11-13T09:36:02;5.20;99.90
12726;DHT22;6427;49.754;6.106;2022-11-13T09:38:29;5.20;99.90
12726;DHT22;6427;49.754;6.106;2022-11-13T09:41:04;5.20;99.90
12726;DHT22;6427;49.754;6.106;2022-11-13T09:43:43;5.30;99.90
12726;DHT22;6427;49.754;6.106;2022-11-13T09:46:39;5.30;99.90
12726;DHT22;6427;49.754;6.106;2022-11-13T09:49:12;5.40;99.90
12726;DHT22;6427;49.754;6.106;2022-11-13T09:51:36;5.40;99.90
12726;DHT22;6427;49.754;6.106;2022-11-13T09:54:04;5.50;99.90
12726;DHT22;6427;49.754;6.106;2022-11-13T09:56:59;5.60;99.90
12726;DHT22;6427;49.754;6.106;2022-11-13T09:59:28;5.80;99.90
12726;DHT22;6427;49.754;6.106;2022-11-13T10:05:06;5.90;99.90
12726;DHT22;6427;49.754;6.106;2022-11-13T10:10:36;6.00;99.90
12726;DHT22;6427;49.754;6.106;2022-11-13T10:13:00;6.10;99.90
12726;DHT22;6427;49.754;6.106;2022-11-13T10:15:28;6.10;99.90
12726;DHT22;6427;49.754;6.106;2022-11-13T10:18:00;6.10;99.90
12726;DHT22;6427;49.754;6.106;2022-11-13T10:20:31;6.20;99.90
12726;DHT22;6427;49.754;6.106;2022-11-13T10:22:59;6.20;99.90
12726;DHT22;6427;49.754;6.106;2022-11-13T10:25:30;6.30;99.90
12726;DHT22;6427;49.754;6.106;2022-11-13T10:27:58;6.30;99.90
12726;DHT22;6427;49.754;6.106;2022-11-13T10:30:25;6.40;99.90
12726;DHT22;6427;49.754;6.106;2022-11-13T10:32:52;6.50;99.90
12726;DHT22;6427;49.754;6.106;2022-11-13T10:40:28;6.70;99.90
12726;DHT22;6427;49.754;6.106;2022-11-13T10:45:38;6.80;99.90
12726;DHT22;6427;49.754;6.106;2022-11-13T10:48:17;6.80;99.90
12726;DHT22;6427;49.754;6.106;2022-11-13T10:50:33;6.90;99.90
12726;DHT22;6427;49.754;6.106;2022-11-13T10:53:00;7.00;99.90
12726;DHT22;6427;49.754;6.106;2022-11-13T10:58:14;7.20;99.90
12726;DHT22;6427;49.754;6.106;2022-11-13T11:00:41;7.60;99.90
12726;DHT22;6427;49.754;6.106;2022-11-13T11:03:15;8.00;99.90
12726;DHT22;6427;49.754;6.106;2022-11-13T11:05:57;8.10;99.90
12726;DHT22;6427;49.754;6.106;2022-11-13T11:08:30;8.10;99.90
12726;DHT22;6427;49.754;6.106;2022-11-13T11:11:12;8.20;99.90
12726;DHT22;6427;49.754;6.106;2022-11-13T11:13:52;8.20;99.90
12726;DHT22;6427;49.754;6.106;2022-11-13T11:16:21;8.30;99.90
12726;DHT22;6427;49.754;6.106;2022-11-13T11:18:59;8.40;99.90
12726;DHT22;6427;49.754;6.106;2022-11-13T11:21:31;8.50;99.90
12726;DHT22;6427;49.754;6.106;2022-11-13T11:24:35;8.50;99.90
12726;DHT22;6427;49.754;6.106;2022-11-13T11:26:48;8.80;99.90
12726;DHT22;6427;49.754;6.106;2022-11-13T11:29:40;8.90;99.90
12726;DHT22;6427;49.754;6.106;2022-11-13T11:35:14;9.30;99.90
12726;DHT22;6427;49.754;6.106;2022-11-13T11:38:24;9.30;99.90
12726;DHT22;6427;49.754;6.106;2022-11-13T11:40:17;9.40;99.90
12726;DHT22;6427;49.754;6.106;2022-11-13T11:42:45;9.60;99.90
12726;DHT22;6427;49.754;6.106;2022-11-13T11:45:26;9.70;99.90
12726;DHT22;6427;49.754;6.106;2022-11-13T11:47:42;10.00;99.90
12726;DHT22;6427;49.754;6.106;2022-11-13T11:50:13;10.20;99.90
12726;DHT22;6427;49.754;6.106;2022-11-13T11:53:02;10.60;99.90
12726;DHT22;6427;49.754;6.106;2022-11-13T12:09:11;11.30;99.90
12726;DHT22;6427;49.754;6.106;2022-11-13T12:11:39;11.60;99.90
12726;DHT22;6427;49.754;6.106;2022-11-13T12:14:38;11.70;99.90
12726;DHT22;6427;49.754;6.106;2022-11-13T12:17:08;11.70;99.90
12726;DHT22;6427;49.754;6.106;2022-11-13T12:19:44;11.80;99.90
12726;DHT22;6427;49.754;6.106;2022-11-13T12:24:54;12.00;99.90
12726;DHT22;6427;49.754;6.106;2022-11-13T12:27:29;12.20;99.90
12726;DHT22;6427;49.754;6.106;2022-11-13T12:30:16;12.30;99.90
12726;DHT22;6427;49.754;6.106;2022-11-13T12:35:29;12.40;99.90
12726;DHT22;6427;49.754;6.106;2022-11-13T12:38:44;12.40;99.90
12726;DHT22;6427;49.754;6.106;2022-11-13T12:40:37;12.50;99.90
12726;DHT22;6427;49.754;6.106;2022-11-13T12:46:08;12.60;99.90
12726;DHT22;6427;49.754;6.106;2022-11-13T12:48:37;12.70;99.90
12726;DHT22;6427;49.754;6.106;2022-11-13T12:51:05;12.80;99.90
12726;DHT22;6427;49.754;6.106;2022-11-13T12:53:42;13.10;99.90
12726;DHT22;6427;49.754;6.106;2022-11-13T12:56:00;13.20;99.90
12726;DHT22;6427;49.754;6.106;2022-11-13T12:58:30;13.40;99.90
12726;DHT22;6427;49.754;6.106;2022-11-13T13:06:17;13.50;99.90
12726;DHT22;6427;49.754;6.106;2022-11-13T13:14:15;13.70;99.90
12726;DHT22;6427;49.754;6.106;2022-11-13T13:16:37;13.80;99.90
12726;DHT22;6427;49.754;6.106;2022-11-13T13:19:19;13.90;99.90
12726;DHT22;6427;49.754;6.106;2022-11-13T13:21:41;13.90;99.90
12726;DHT22;6427;49.754;6.106;2022-11-13T13:24:09;14.00;99.90
12726;DHT22;6427;49.754;6.106;2022-11-13T13:26:42;14.30;99.90
12726;DHT22;6427;49.754;6.106;2022-11-13T13:29:15;14.60;99.90
12726;DHT22;6427;49.754;6.106;2022-11-13T13:37:24;14.60;99.90
12726;DHT22;6427;49.754;6.106;2022-11-13T13:40:07;14.60;99.90
12726;DHT22;6427;49.754;6.106;2022-11-13T13:42:54;14.60;99.90
12726;DHT22;6427;49.754;6.106;2022-11-13T13:48:12;14.90;99.90
12726;DHT22;6427;49.754;6.106;2022-11-13T13:50:38;14.80;99.90
12726;DHT22;6427;49.754;6.106;2022-11-13T13:53:03;14.90;99.90
12726;DHT22;6427;49.754;6.106;2022-11-13T13:55:31;14.90;98.90
12726;DHT22;6427;49.754;6.106;2022-11-13T13:57:59;14.90;98.00
12726;DHT22;6427;49.754;6.106;2022-11-13T14:00:26;14.90;97.10
12726;DHT22;6427;49.754;6.106;2022-11-13T14:02:54;14.90;97.10
12726;DHT22;6427;49.754;6.106;2022-11-13T14:05:31;14.90;96.10
12726;DHT22;6427;49.754;6.106;2022-11-13T14:07:59;15.00;95.90
12726;DHT22;6427;49.754;6.106;2022-11-13T14:10:27;15.00;95.60
12726;DHT22;6427;49.754;6.106;2022-11-13T14:12:55;15.10;95.20
12726;DHT22;6427;49.754;6.106;2022-11-13T14:17:50;15.10;95.10
12726;DHT22;6427;49.754;6.106;2022-11-13T14:20:17;15.10;95.10
12726;DHT22;6427;49.754;6.106;2022-11-13T14:22:47;15.10;94.50
12726;DHT22;6427;49.754;6.106;2022-11-13T14:25:16;15.10;94.50
12726;DHT22;6427;49.754;6.106;2022-11-13T14:27:41;15.10;94.30
12726;DHT22;6427;49.754;6.106;2022-11-13T14:30:20;15.10;94.10
12726;DHT22;6427;49.754;6.106;2022-11-13T14:32:40;15.10;94.10
12726;DHT22;6427;49.754;6.106;2022-11-13T14:35:16;15.10;93.90
12726;DHT22;6427;49.754;6.106;2022-11-13T14:37:36;15.10;93.70
12726;DHT22;6427;49.754;6.106;2022-11-13T14:40:04;15.10;93.30
12726;DHT22;6427;49.754;6.106;2022-11-13T14:42:32;15.10;93.00
12726;DHT22;6427;49.754;6.106;2022-11-13T14:45:17;15.30;92.20
12726;DHT22;6427;49.754;6.106;2022-11-13T14:47:54;15.30;91.80
12726;DHT22;6427;49.754;6.106;2022-11-13T14:50:22;15.20;91.60
12726;DHT22;6427;49.754;6.106;2022-11-13T14:55:27;15.10;91.20
12726;DHT22;6427;49.754;6.106;2022-11-13T14:57:54;15.10;91.20
12726;DHT22;6427;49.754;6.106;2022-11-13T15:00:31;15.00;91.30
12726;DHT22;6427;49.754;6.106;2022-11-13T15:02:57;15.00;91.30
12726;DHT22;6427;49.754;6.106;2022-11-13T15:05:25;15.00;91.60
12726;DHT22;6427;49.754;6.106;2022-11-13T15:07:53;14.90;91.40
12726;DHT22;6427;49.754;6.106;2022-11-13T15:10:21;14.80;91.30
12726;DHT22;6427;49.754;6.106;2022-11-13T15:12:49;14.80;91.00
12726;DHT22;6427;49.754;6.106;2022-11-13T15:15:22;14.70;90.70
12726;DHT22;6427;49.754;6.106;2022-11-13T15:17:48;14.70;90.60
12726;DHT22;6427;49.754;6.106;2022-11-13T15:20:20;14.70;90.50
12726;DHT22;6427;49.754;6.106;2022-11-13T15:22:46;14.80;90.30
12726;DHT22;6427;49.754;6.106;2022-11-13T15:25:14;14.80;90.00
12726;DHT22;6427;49.754;6.106;2022-11-13T15:27:41;14.90;90.00
12726;DHT22;6427;49.754;6.106;2022-11-13T15:30:08;14.80;89.20
12726;DHT22;6427;49.754;6.106;2022-11-13T15:32:36;14.90;89.10
12726;DHT22;6427;49.754;6.106;2022-11-13T15:35:05;14.60;88.80
12726;DHT22;6427;49.754;6.106;2022-11-13T15:37:32;14.70;89.40
12726;DHT22;6427;49.754;6.106;2022-11-13T15:39:59;14.50;90.10
12726;DHT22;6427;49.754;6.106;2022-11-13T15:42:28;14.30;90.70
12726;DHT22;6427;49.754;6.106;2022-11-13T15:44:55;14.30;90.70
12726;DHT22;6427;49.754;6.106;2022-11-13T15:47:29;14.20;91.00
12726;DHT22;6427;49.754;6.106;2022-11-13T15:49:56;14.10;91.20
12726;DHT22;6427;49.754;6.106;2022-11-13T15:52:24;13.90;91.40
12726;DHT22;6427;49.754;6.106;2022-11-13T15:54:51;14.10;91.30
12726;DHT22;6427;49.754;6.106;2022-11-13T15:57:24;14.00;91.10
12726;DHT22;6427;49.754;6.106;2022-11-13T15:59:51;13.90;91.20
12726;DHT22;6427;49.754;6.106;2022-11-13T16:02:18;13.80;91.20
12726;DHT22;6427;49.754;6.106;2022-11-13T16:04:46;13.60;91.60
12726;DHT22;6427;49.754;6.106;2022-11-13T16:07:17;13.50;92.00
12726;DHT22;6427;49.754;6.106;2022-11-13T16:09:44;13.70;93.10
12726;DHT22;6427;49.754;6.106;2022-11-13T16:12:12;13.60;93.10
12726;DHT22;6427;49.754;6.106;2022-11-13T16:14:39;13.40;93.80
12726;DHT22;6427;49.754;6.106;2022-11-13T16:17:15;13.20;93.90
12726;DHT22;6427;49.754;6.106;2022-11-13T16:19:38;13.10;95.20
12726;DHT22;6427;49.754;6.106;2022-11-13T16:22:19;13.10;95.20
12726;DHT22;6427;49.754;6.106;2022-11-13T16:24:46;13.00;95.00
12726;DHT22;6427;49.754;6.106;2022-11-13T16:27:14;12.80;95.10
12726;DHT22;6427;49.754;6.106;2022-11-13T16:29:41;12.60;94.90
12726;DHT22;6427;49.754;6.106;2022-11-13T16:32:12;12.50;94.50
12726;DHT22;6427;49.754;6.106;2022-11-13T16:34:39;12.40;94.10
12726;DHT22;6427;49.754;6.106;2022-11-13T16:37:23;12.40;94.10
12726;DHT22;6427;49.754;6.106;2022-11-13T16:39:46;12.60;95.80
12726;DHT22;6427;49.754;6.106;2022-11-13T16:42:14;12.40;95.40
12726;DHT22;6427;49.754;6.106;2022-11-13T16:44:42;12.10;96.20
12726;DHT22;6427;49.754;6.106;2022-11-13T16:47:22;12.10;96.20
12726;DHT22;6427;49.754;6.106;2022-11-13T16:49:49;11.90;96.90
12726;DHT22;6427;49.754;6.106;2022-11-13T16:52:17;12.00;98.40
12726;DHT22;6427;49.754;6.106;2022-11-13T16:54:44;11.90;98.40
12726;DHT22;6427;49.754;6.106;2022-11-13T16:57:12;11.70;99.00
12726;DHT22;6427;49.754;6.106;2022-11-13T16:59:39;11.50;99.50
12726;DHT22;6427;49.754;6.106;2022-11-13T17:02:14;11.30;99.90
12726;DHT22;6427;49.754;6.106;2022-11-13T17:04:40;11.40;99.90
12726;DHT22;6427;49.754;6.106;2022-11-13T17:07:13;11.30;99.90
12726;DHT22;6427;49.754;6.106;2022-11-13T17:09:37;11.10;99.90
12726;DHT22;6427;49.754;6.106;2022-11-13T17:12:03;11.00;99.90
12726;DHT22;6427;49.754;6.106;2022-11-13T17:14:31;10.80;99.90
12726;DHT22;6427;49.754;6.106;2022-11-13T17:16:59;10.70;99.90